»·PEaware :: N247CH KRDD-KPDX

N247CH :: KRDD-KPDX

FLIGHT INFORMATION

Flight Status: Arrived
Operator: Privately registered:
United States
More flights under this callsign
Pilot: David Z. (5144)
Aircraft: BEECH AIRCRAFT SUPER KING AIR 350
(B350)
More flights by this aircraft type
Origin: KRDD Redding Mun
United States
Destination: KPDX Portland Intl
United States
More flights between these airports :: More routes between these airports
Route: +SHA3 SPNSR TMBRS2
File this flight plan on PilotEdge
Remarks:
Altitude:
(Current/Filed)
30,000ft
Speed:
(Current/Filed)
230kts
Departed: 17-Apr-19 07:32 AM
Arrived: 17-Apr-19 09:01 AM
Distance/Time
Traveled:
305nm/1:29
Distance/Time
To Go:
Arrived

Flight Plot

Page will automatically refresh every two minutes.

Flight plan parsing failed; only flown route is shown


Map Options




Map Legend


Flown Route
Filed Route
Departure Airport
Arrival Airport
Navaid (VOR, NDB)
Fix

Horizontal Profiles

Position Reports

Time Latitude Longitude Heading Altitude Ground
Speed
17-Apr-19 07:10 40.510841 -122.297687 179 462ft 0kts
17-Apr-19 07:12 40.510841 -122.297687 179 462ft 0kts
17-Apr-19 07:12 40.510841 -122.297687 179 462ft 0kts
17-Apr-19 07:13 40.510841 -122.297687 179 462ft 0kts
17-Apr-19 07:15 40.510841 -122.297687 179 462ft 0kts
17-Apr-19 07:15 40.510841 -122.297687 179 462ft 0kts
17-Apr-19 07:16 40.510841 -122.297687 180 462ft 0kts
17-Apr-19 07:17 40.510841 -122.297687 179 462ft 0kts
17-Apr-19 07:18 40.510841 -122.297687 179 462ft 0kts
17-Apr-19 07:19 40.510841 -122.297687 179 462ft 0kts
17-Apr-19 07:20 40.510841 -122.297687 179 462ft 0kts
17-Apr-19 07:21 40.510841 -122.297687 179 462ft 0kts
17-Apr-19 07:22 40.510841 -122.297687 179 462ft 0kts
17-Apr-19 07:23 40.510841 -122.297687 179 462ft 0kts
17-Apr-19 07:24 40.510841 -122.297687 179 462ft 0kts
17-Apr-19 07:25 40.511081 -122.298623 1 462ft 0kts
17-Apr-19 07:26 40.512555 -122.296315 8 462ft 14kts
17-Apr-19 07:27 40.518049 -122.296278 359 462ft 19kts
17-Apr-19 07:28 40.520239 -122.295998 75 462ft 0kts
17-Apr-19 07:29 40.520239 -122.295998 75 462ft 0kts
17-Apr-19 07:30 40.519912 -122.294843 179 462ft 6kts
17-Apr-19 07:31 40.496161 -122.294834 180 1072ft 140kts
17-Apr-19 07:32 40.454398 -122.293010 181 3018ft 155kts
17-Apr-19 07:33 40.413994 -122.291014 177 5082ft 144kts
17-Apr-19 07:34 40.370511 -122.295729 232 6545ft 167kts
17-Apr-19 07:35 40.373721 -122.353020 285 8297ft 164kts
17-Apr-19 07:36 40.383320 -122.411925 285 10119ft 165kts
17-Apr-19 07:37 40.417183 -122.439566 352 11888ft 158kts
17-Apr-19 07:38 40.460808 -122.445997 350 13491ft 160kts
17-Apr-19 07:39 40.505267 -122.453582 349 15186ft 163kts
17-Apr-19 07:40 40.550296 -122.461351 349 16792ft 165kts
17-Apr-19 07:41 40.595958 -122.469233 349 18229ft 168kts
17-Apr-19 07:42 40.642798 -122.477328 348 19554ft 170kts
17-Apr-19 07:43 40.690161 -122.485523 348 20911ft 173kts
17-Apr-19 07:44 40.738193 -122.493857 348 22211ft 176kts
17-Apr-19 07:45 40.787947 -122.502507 348 23082ft 195kts
17-Apr-19 07:46 40.847900 -122.512567 349 23082ft 234kts
17-Apr-19 07:47 40.915279 -122.524054 349 23076ft 251kts
17-Apr-19 07:48 40.985984 -122.536309 349 23073ft 259kts
17-Apr-19 07:49 41.057824 -122.548146 349 23071ft 261kts
17-Apr-19 07:50 41.129040 -122.560475 349 23072ft 260kts
17-Apr-19 07:51 41.183869 -122.570598 346 25738ft 180kts
17-Apr-19 07:52 41.234652 -122.579997 346 26767ft 186kts
17-Apr-19 07:53 41.286217 -122.589181 346 27744ft 188kts
17-Apr-19 07:54 41.338777 -122.598509 346 28632ft 190kts
17-Apr-19 07:55 41.391513 -122.607885 345 29422ft 192kts
17-Apr-19 07:56 41.444696 -122.617355 345 30117ft 194kts
17-Apr-19 07:57 41.499784 -122.627273 346 30355ft 211kts
17-Apr-19 07:58 41.560416 -122.638089 346 30348ft 227kts
17-Apr-19 07:59 41.623720 -122.649369 346 30343ft 233kts
17-Apr-19 08:00 41.688566 -122.660989 346 30350ft 237kts
17-Apr-19 08:01 41.755031 -122.672956 346 30349ft 244kts
17-Apr-19 08:02 41.823669 -122.685323 346 30347ft 248kts
17-Apr-19 08:03 41.892911 -122.697812 346 30345ft 248kts
17-Apr-19 08:04 41.962073 -122.710326 346 30344ft 248kts
17-Apr-19 08:05 42.031169 -122.722861 345 30345ft 248kts
17-Apr-19 08:06 42.099317 -122.735254 345 30343ft 248kts
17-Apr-19 08:07 42.167819 -122.747752 345 30352ft 249kts
17-Apr-19 08:08 42.236444 -122.760287 345 30351ft 250kts
17-Apr-19 08:09 42.305364 -122.772898 345 30369ft 250kts
17-Apr-19 08:10 42.374141 -122.785516 345 30368ft 250kts
17-Apr-19 08:11 42.443092 -122.798095 345 30386ft 250kts
17-Apr-19 08:12 42.512059 -122.810876 345 30392ft 250kts
17-Apr-19 08:13 42.581272 -122.823681 345 30392ft 250kts
17-Apr-19 08:14 42.650323 -122.836464 345 30387ft 250kts
17-Apr-19 08:15 42.714309 -122.848331 345 30382ft 250kts
17-Apr-19 08:16 42.783156 -122.861127 345 30381ft 250kts
17-Apr-19 08:17 42.852186 -122.872269 352 30381ft 254kts
17-Apr-19 08:18 42.923027 -122.866217 355 30380ft 256kts
17-Apr-19 08:19 42.994170 -122.859945 355 30379ft 256kts
17-Apr-19 08:20 43.065154 -122.853548 355 30380ft 256kts
17-Apr-19 08:21 43.136085 -122.847145 355 30395ft 256kts
17-Apr-19 08:22 43.207579 -122.840677 354 30400ft 258kts
17-Apr-19 08:23 43.278932 -122.834195 354 30429ft 257kts
17-Apr-19 08:24 43.350213 -122.827709 354 30452ft 257kts
17-Apr-19 08:25 43.421217 -122.821206 354 30159ft 256kts
17-Apr-19 08:26 43.492518 -122.814667 355 29583ft 260kts
17-Apr-19 08:27 43.564171 -122.808018 355 28983ft 256kts
17-Apr-19 08:28 43.635134 -122.801456 355 28390ft 256kts
17-Apr-19 08:29 43.705903 -122.794905 355 27795ft 256kts
17-Apr-19 08:30 43.776591 -122.788322 356 27190ft 254kts
17-Apr-19 08:31 43.847071 -122.781764 356 26587ft 254kts
17-Apr-19 08:32 43.917557 -122.775368 356 25982ft 255kts
17-Apr-19 08:33 43.988258 -122.768928 357 25377ft 255kts
17-Apr-19 08:34 44.059791 -122.762233 356 24778ft 261kts
17-Apr-19 08:35 44.127706 -122.755868 357 24239ft 266kts
17-Apr-19 08:36 44.203603 -122.748384 358 23281ft 280kts
17-Apr-19 08:37 44.282230 -122.740612 358 22155ft 286kts
17-Apr-19 08:38 44.361489 -122.732833 358 20983ft 286kts
17-Apr-19 08:39 44.440283 -122.724817 358 19800ft 283kts
17-Apr-19 08:40 44.518305 -122.717044 358 18613ft 280kts
17-Apr-19 08:41 44.595866 -122.709358 358 17431ft 280kts
17-Apr-19 08:42 44.673180 -122.701628 358 16252ft 279kts
17-Apr-19 08:43 44.750618 -122.693863 358 15063ft 278kts
17-Apr-19 08:44 44.827498 -122.686141 358 13947ft 275kts
17-Apr-19 08:45 44.903423 -122.678520 358 12944ft 273kts
17-Apr-19 08:46 44.978837 -122.670950 358 11967ft 273kts
17-Apr-19 08:47 45.054292 -122.663355 358 11351ft 272kts
17-Apr-19 08:48 45.125351 -122.655358 0 10858ft 272kts
17-Apr-19 08:49 45.200533 -122.647691 358 10230ft 277kts
17-Apr-19 08:50 45.273608 -122.654306 333 8935ft 261kts
17-Apr-19 08:51 45.342244 -122.693666 335 7400ft 267kts
17-Apr-19 08:52 45.410647 -122.731312 335 6133ft 262kts
17-Apr-19 08:53 45.478547 -122.768634 336 5007ft 255kts
17-Apr-19 08:54 45.541028 -122.804160 335 4506ft 239kts
17-Apr-19 08:55 45.604390 -122.796322 26 3014ft 238kts
17-Apr-19 08:56 45.641341 -122.724309 69 1419ft 220kts
17-Apr-19 08:57 45.622107 -122.666430 121 982ft 132kts
17-Apr-19 08:58 45.605407 -122.622796 119 469ft 122kts
17-Apr-19 08:59 45.591232 -122.586593 118 33ft 44kts
17-Apr-19 09:00 45.588181 -122.582550 207 30ft 9kts
17-Apr-19 09:01 45.586853 -122.582376 297 26ft 2kts
17-Apr-19 09:02 45.586862 -122.582402 297 26ft 0kts
17-Apr-19 09:03 45.586862 -122.582402 297 26ft 0kts
17-Apr-19 09:04 45.586862 -122.582402 297 26ft 0kts
17-Apr-19 09:06 45.586862 -122.582402 297 26ft 0kts
17-Apr-19 09:07 45.586862 -122.582402 297 26ft 0kts
17-Apr-19 09:08 45.586862 -122.582402 297 26ft 0kts
17-Apr-19 09:09 45.586862 -122.582402 297 26ft 0kts
17-Apr-19 09:10 45.586862 -122.582402 297 26ft 0kts
17-Apr-19 09:11 45.586862 -122.582402 297 26ft 0kts

Navigation Log

Ident Type
Flight plan parsing failed, navigation log unavailable